createdAt,value
2019-05-26T00:01:14.015Z,7.40
2019-05-26T00:03:42.744Z,7.03
2019-05-26T00:06:11.385Z,7.27
2019-05-26T00:08:39.935Z,7.67
2019-05-26T00:11:08.594Z,7.57
2019-05-26T00:13:37.293Z,7.37
2019-05-26T00:16:05.896Z,7.67
2019-05-26T00:18:34.419Z,7.17
2019-05-26T00:21:04.431Z,7.33
2019-05-26T00:23:32.827Z,7.37
2019-05-26T00:26:01.271Z,8.20
2019-05-26T00:28:29.785Z,7.43
2019-05-26T00:30:58.366Z,7.83
2019-05-26T00:33:26.977Z,7.57
2019-05-26T00:35:55.451Z,6.93
2019-05-26T00:38:24.031Z,7.30
2019-05-26T00:40:52.594Z,7.10
2019-05-26T00:43:21.367Z,6.93
2019-05-26T00:45:49.882Z,7.37
2019-05-26T00:48:18.305Z,6.50
2019-05-26T00:50:46.725Z,6.93
2019-05-26T00:53:15.173Z,7.00
2019-05-26T00:55:43.571Z,6.93
2019-05-26T00:58:12.064Z,7.17
2019-05-26T01:00:43.035Z,6.70
2019-05-26T01:03:12.304Z,6.90
2019-05-26T01:05:41.068Z,6.53
2019-05-26T01:08:09.734Z,7.17
2019-05-26T01:10:38.295Z,7.13
2019-05-26T01:13:07.245Z,6.83
2019-05-26T01:15:35.798Z,6.80
2019-05-26T01:18:05.048Z,6.97
2019-05-26T01:20:33.663Z,6.73
2019-05-26T01:23:02.081Z,7.13
2019-05-26T01:25:30.510Z,7.00
2019-05-26T01:27:58.949Z,7.07
2019-05-26T01:30:38.571Z,6.63
2019-05-26T01:33:07.648Z,6.70
2019-05-26T01:35:39.914Z,7.00
2019-05-26T01:38:22.596Z,6.73
2019-05-26T01:40:43.787Z,6.00
2019-05-26T01:43:12.347Z,5.97
2019-05-26T01:45:40.774Z,6.90
2019-05-26T01:48:09.458Z,6.27
2019-05-26T01:50:38.007Z,7.03
2019-05-26T01:53:07.283Z,6.73
2019-05-26T01:55:36.240Z,7.17
2019-05-26T01:58:05.096Z,6.73
2019-05-26T02:00:33.602Z,6.67
2019-05-26T02:03:02.004Z,6.87
2019-05-26T02:05:30.441Z,6.10
2019-05-26T02:07:58.941Z,6.53
2019-05-26T02:10:27.349Z,6.40
2019-05-26T02:12:55.781Z,6.20
2019-05-26T02:15:25.145Z,6.47
2019-05-26T02:17:53.631Z,6.77
2019-05-26T02:20:22.483Z,6.70
2019-05-26T02:22:50.896Z,6.87
2019-05-26T02:25:20.262Z,6.53
2019-05-26T02:27:48.703Z,6.70
2019-05-26T02:30:18.159Z,6.20
2019-05-26T02:32:46.590Z,6.40
2019-05-26T02:35:15.459Z,6.93
2019-05-26T02:37:43.929Z,6.70
2019-05-26T02:40:15.450Z,7.07
2019-05-26T02:42:43.853Z,6.87
2019-05-26T02:45:16.726Z,6.43
2019-05-26T02:47:46.891Z,6.87
2019-05-26T02:50:16.593Z,6.93
2019-05-26T02:52:45.007Z,6.20
2019-05-26T02:55:13.963Z,7.07
2019-05-26T02:57:42.399Z,6.40
2019-05-26T03:00:13.200Z,5.73
2019-05-26T03:02:41.808Z,6.17
2019-05-26T03:05:11.764Z,5.83
2019-05-26T03:07:43.187Z,6.37
2019-05-26T03:10:14.291Z,6.60
2019-05-26T03:12:43.658Z,6.50
2019-05-26T03:15:13.923Z,6.13
2019-05-26T03:17:43.482Z,6.30
2019-05-26T03:20:14.934Z,5.97
2019-05-26T03:22:43.417Z,5.90
2019-05-26T03:25:12.918Z,6.13
2019-05-26T03:27:41.378Z,5.30
2019-05-26T03:30:12.150Z,6.57
2019-05-26T03:32:40.691Z,5.20
2019-05-26T03:35:10.545Z,5.90
2019-05-26T03:37:38.986Z,5.63
2019-05-26T03:40:11.524Z,5.40
2019-05-26T03:42:39.930Z,5.63
2019-05-26T03:45:09.500Z,5.83
2019-05-26T03:47:37.930Z,5.40
2019-05-26T03:50:09.557Z,6.03
2019-05-26T03:52:38.004Z,5.73
2019-05-26T03:55:07.448Z,5.63
2019-05-26T03:57:35.924Z,5.73
2019-05-26T04:00:07.679Z,5.43
2019-05-26T04:02:36.157Z,5.20
2019-05-26T04:05:07.022Z,5.20
2019-05-26T04:07:35.473Z,5.30
2019-05-26T04:10:08.265Z,5.83
2019-05-26T04:12:36.743Z,5.17
2019-05-26T04:15:06.903Z,4.90
2019-05-26T04:17:35.315Z,5.50
2019-05-26T04:20:04.893Z,5.57
2019-05-26T04:22:33.315Z,5.03
2019-05-26T04:25:02.048Z,5.60
2019-05-26T04:27:30.449Z,5.23
2019-05-26T04:29:58.854Z,5.53
2019-05-26T04:32:27.287Z,4.87
2019-05-26T04:34:55.784Z,5.20
2019-05-26T04:37:24.190Z,5.20
2019-05-26T04:39:52.621Z,5.17
2019-05-26T04:42:21.035Z,5.07
2019-05-26T04:44:49.475Z,5.30
2019-05-26T04:47:17.919Z,5.53
2019-05-26T04:49:46.408Z,6.10
2019-05-26T04:52:14.861Z,4.93
2019-05-26T04:54:43.314Z,5.57
2019-05-26T04:57:11.706Z,5.47
2019-05-26T04:59:40.135Z,6.13
2019-05-26T05:02:08.567Z,5.17
2019-05-26T05:04:36.993Z,4.93
2019-05-26T05:07:05.603Z,5.30
2019-05-26T05:09:34.030Z,4.97
2019-05-26T05:12:05.611Z,5.23
2019-05-26T05:14:34.032Z,5.23
2019-05-26T05:17:02.530Z,5.50
2019-05-26T05:19:30.981Z,5.40
2019-05-26T05:21:59.485Z,5.60
2019-05-26T05:24:28.197Z,5.80
2019-05-26T05:26:56.615Z,5.30
2019-05-26T05:29:25.064Z,5.57
2019-05-26T05:31:53.639Z,5.63
2019-05-26T05:34:22.064Z,6.20
2019-05-26T05:36:50.494Z,5.17
2019-05-26T05:39:18.926Z,5.73
2019-05-26T05:41:47.340Z,5.87
2019-05-26T05:44:15.773Z,5.50
2019-05-26T05:46:44.207Z,6.33
2019-05-26T05:49:12.654Z,5.67
2019-05-26T05:51:41.086Z,6.43
2019-05-26T05:54:09.491Z,6.43
2019-05-26T05:56:38.000Z,6.10
2019-05-26T05:59:06.398Z,5.70
2019-05-26T06:01:34.912Z,5.93
2019-05-26T06:04:03.420Z,6.70
2019-05-26T06:06:31.867Z,5.80
2019-05-26T06:09:00.303Z,5.30
2019-05-26T06:11:28.744Z,5.67
2019-05-26T06:13:57.151Z,5.93
2019-05-26T06:16:25.687Z,5.17
2019-05-26T06:18:54.137Z,5.53
2019-05-26T06:21:23.082Z,6.03
2019-05-26T06:23:51.752Z,4.97
2019-05-26T06:26:20.457Z,5.40
2019-05-26T06:28:52.186Z,6.20
2019-05-26T06:31:19.074Z,6.77
2019-05-26T06:33:47.575Z,6.17
2019-05-26T06:36:15.993Z,5.83
2019-05-26T06:38:44.514Z,5.63
2019-05-26T06:41:12.993Z,6.63
2019-05-26T06:43:41.478Z,6.27
2019-05-26T06:46:09.915Z,6.00
2019-05-26T06:48:38.336Z,5.87
2019-05-26T06:51:06.843Z,5.67
2019-05-26T06:53:37.443Z,5.33
2019-05-26T06:56:05.450Z,5.03
2019-05-26T06:58:34.037Z,5.00
2019-05-26T07:01:02.859Z,5.20
2019-05-26T07:03:31.352Z,4.63
2019-05-26T07:05:59.859Z,4.70
2019-05-26T07:08:28.874Z,4.33
2019-05-26T07:10:57.315Z,4.90
2019-05-26T07:13:25.889Z,5.00
2019-05-26T07:15:54.299Z,5.07
2019-05-26T07:18:22.762Z,5.67
2019-05-26T07:20:51.265Z,4.87
2019-05-26T07:23:19.704Z,5.00
2019-05-26T07:25:48.192Z,5.40
2019-05-26T07:28:17.372Z,5.03
2019-05-26T07:30:45.829Z,5.40
2019-05-26T07:33:14.316Z,7.03
2019-05-26T07:35:44.086Z,6.33
2019-05-26T07:38:12.566Z,6.17
2019-05-26T07:40:40.989Z,6.60
2019-05-26T07:43:09.983Z,7.60
2019-05-26T07:45:38.756Z,6.70
2019-05-26T07:48:07.183Z,7.20
2019-05-26T07:50:35.908Z,8.03
2019-05-26T07:53:04.612Z,8.10
2019-05-26T07:55:33.020Z,7.50
2019-05-26T07:58:01.526Z,7.83
2019-05-26T08:00:30.110Z,8.80
2019-05-26T08:02:58.916Z,8.50
2019-05-26T08:05:27.341Z,8.27
2019-05-26T08:08:11.483Z,9.27
2019-05-26T08:10:26.012Z,11.17
2019-05-26T08:12:54.444Z,9.43
2019-05-26T08:15:22.939Z,9.77
2019-05-26T08:17:51.424Z,11.30
2019-05-26T08:20:20.390Z,12.90
2019-05-26T08:22:48.866Z,14.03
2019-05-26T08:25:17.675Z,14.17
2019-05-26T08:27:46.100Z,15.03
2019-05-26T08:30:14.988Z,14.60
2019-05-26T08:32:43.395Z,14.93
2019-05-26T08:35:11.961Z,14.23
2019-05-26T08:37:40.409Z,13.70
2019-05-26T08:40:20.777Z,14.00
2019-05-26T08:42:51.236Z,14.93
2019-05-26T08:45:23.027Z,13.50
2019-05-26T08:47:52.794Z,14.03
2019-05-26T08:50:21.921Z,14.33
2019-05-26T08:52:50.590Z,13.30
2019-05-26T08:55:19.094Z,12.43
2019-05-26T08:57:47.522Z,13.37
2019-05-26T09:00:16.987Z,13.90
2019-05-26T09:02:45.439Z,16.02
2019-05-26T09:05:15.074Z,13.87
2019-05-26T09:07:43.515Z,13.27
2019-05-26T09:10:12.982Z,13.67
2019-05-26T09:12:41.546Z,12.43
2019-05-26T09:15:12.243Z,12.80
2019-05-26T09:17:40.786Z,13.70
2019-05-26T09:20:11.764Z,11.93
2019-05-26T09:22:40.514Z,10.87
2019-05-26T09:25:09.344Z,10.10
2019-05-26T09:27:38.033Z,10.00
2019-05-26T09:30:07.917Z,8.83
2019-05-26T09:32:36.916Z,9.77
2019-05-26T09:35:09.211Z,8.93
2019-05-26T09:37:37.899Z,9.37
2019-05-26T09:40:08.320Z,8.90
2019-05-26T09:42:36.787Z,8.67
2019-05-26T09:45:07.558Z,9.10
2019-05-26T09:47:35.972Z,7.90
2019-05-26T09:50:07.365Z,7.07
2019-05-26T09:52:36.303Z,7.57
2019-05-26T09:55:07.115Z,6.53
2019-05-26T09:57:35.547Z,7.80
2019-05-26T10:00:07.289Z,8.60
2019-05-26T10:02:35.779Z,7.10
2019-05-26T10:05:08.659Z,6.67
2019-05-26T10:07:37.065Z,6.70
2019-05-26T10:10:10.986Z,7.57
2019-05-26T10:12:39.345Z,6.60
2019-05-26T10:15:08.594Z,7.27
2019-05-26T10:17:37.019Z,5.57
2019-05-26T10:20:08.172Z,6.40
2019-05-26T10:22:36.669Z,5.87
2019-05-26T10:25:09.247Z,5.90
2019-05-26T10:27:37.672Z,5.17
2019-05-26T10:30:12.068Z,4.60
2019-05-26T10:32:41.611Z,4.13
2019-05-26T10:35:10.153Z,5.40
2019-05-26T10:37:38.579Z,4.73
2019-05-26T10:40:07.728Z,4.40
2019-05-26T10:42:36.153Z,3.77
2019-05-26T10:45:09.525Z,3.80
2019-05-26T10:47:38.000Z,4.53
2019-05-26T10:50:10.500Z,4.47
2019-05-26T10:52:38.925Z,3.60
2019-05-26T10:55:08.164Z,3.47
2019-05-26T10:57:36.731Z,3.80
2019-05-26T11:00:09.840Z,4.50
2019-05-26T11:02:38.310Z,3.87
2019-05-26T11:05:08.173Z,3.80
2019-05-26T11:07:36.680Z,3.50
2019-05-26T11:10:07.091Z,3.87
2019-05-26T11:12:35.593Z,3.87
2019-05-26T11:15:09.172Z,4.40
2019-05-26T11:17:37.676Z,4.23
2019-05-26T11:20:09.154Z,4.00
2019-05-26T11:22:37.593Z,3.67
2019-05-26T11:25:07.137Z,3.90
2019-05-26T11:27:35.559Z,4.23
2019-05-26T11:30:06.514Z,3.70
2019-05-26T11:32:34.902Z,4.57
2019-05-26T11:35:03.398Z,3.67
2019-05-26T11:37:31.905Z,3.83
2019-05-26T11:40:00.338Z,4.00
2019-05-26T11:42:28.809Z,4.20
2019-05-26T11:44:57.269Z,3.90
2019-05-26T11:47:25.682Z,3.93
2019-05-26T11:49:54.104Z,3.87
2019-05-26T11:52:22.672Z,4.10
2019-05-26T11:54:51.089Z,4.27
2019-05-26T11:57:19.537Z,4.00
2019-05-26T11:59:47.974Z,4.37
2019-05-26T12:02:16.365Z,4.03
2019-05-26T12:04:44.780Z,3.83
2019-05-26T12:07:13.216Z,3.70
2019-05-26T12:09:41.633Z,4.27
2019-05-26T12:12:10.074Z,4.67
2019-05-26T12:14:38.503Z,3.80
2019-05-26T12:17:06.926Z,3.80
2019-05-26T12:19:35.349Z,4.50
2019-05-26T12:22:03.821Z,4.33
2019-05-26T12:24:32.244Z,3.93
2019-05-26T12:27:00.678Z,3.77
2019-05-26T12:29:29.096Z,4.30
2019-05-26T12:31:57.532Z,5.00
2019-05-26T12:34:25.994Z,4.33
2019-05-26T12:36:54.405Z,4.40
2019-05-26T12:39:22.827Z,3.90
2019-05-26T12:41:51.263Z,4.10
2019-05-26T12:44:19.676Z,3.83
2019-05-26T12:46:48.106Z,4.20
2019-05-26T12:49:16.518Z,4.27
2019-05-26T12:51:44.948Z,4.03
2019-05-26T12:54:13.360Z,3.60
2019-05-26T12:56:41.767Z,3.80
2019-05-26T12:59:10.316Z,3.93
2019-05-26T13:01:38.715Z,3.67
2019-05-26T13:04:07.607Z,3.13
2019-05-26T13:06:36.036Z,2.90
2019-05-26T13:09:10.511Z,3.30
2019-05-26T13:11:39.035Z,2.93
2019-05-26T13:14:07.595Z,3.20
2019-05-26T13:16:36.146Z,3.07
2019-05-26T13:19:05.260Z,3.77
2019-05-26T13:21:33.699Z,3.40
2019-05-26T13:24:02.185Z,3.23
2019-05-26T13:26:30.601Z,3.00
2019-05-26T13:28:59.004Z,2.73
2019-05-26T13:31:27.439Z,3.10
2019-05-26T13:33:55.860Z,3.00
2019-05-26T13:36:24.267Z,3.23
2019-05-26T13:38:52.725Z,2.77
2019-05-26T13:41:21.132Z,2.77
2019-05-26T13:43:49.550Z,2.60
2019-05-26T13:46:17.987Z,2.73
2019-05-26T13:48:46.431Z,2.53
2019-05-26T13:51:14.857Z,2.80
2019-05-26T13:53:43.283Z,2.80
2019-05-26T13:56:11.705Z,2.67
2019-05-26T13:58:40.151Z,2.77
2019-05-26T14:01:08.545Z,2.80
2019-05-26T14:03:37.045Z,3.03
2019-05-26T14:06:05.605Z,2.90
2019-05-26T14:08:34.045Z,3.00
2019-05-26T14:11:02.501Z,2.80
2019-05-26T14:13:30.922Z,3.13
2019-05-26T14:16:01.706Z,2.93
2019-05-26T14:18:31.974Z,2.70
2019-05-26T14:21:00.394Z,2.80
2019-05-26T14:23:28.800Z,2.50
2019-05-26T14:25:57.228Z,3.00
2019-05-26T14:28:25.664Z,2.50
2019-05-26T14:30:54.078Z,2.90
2019-05-26T14:33:22.508Z,2.40
2019-05-26T14:35:50.931Z,2.37
2019-05-26T14:38:19.419Z,2.73
2019-05-26T14:40:47.847Z,2.30
2019-05-26T14:43:16.257Z,2.00
2019-05-26T14:45:52.818Z,2.50
2019-05-26T14:48:14.889Z,2.70
2019-05-26T14:50:45.057Z,1.97
2019-05-26T14:53:13.540Z,2.50
2019-05-26T14:55:42.022Z,2.30
2019-05-26T14:58:16.130Z,2.50
2019-05-26T15:00:40.619Z,2.00
2019-05-26T15:03:09.081Z,2.30
2019-05-26T15:05:37.505Z,2.30
2019-05-26T15:08:06.068Z,2.10
2019-05-26T15:10:34.507Z,2.30
2019-05-26T15:13:02.993Z,2.27
2019-05-26T15:15:34.905Z,2.20
2019-05-26T15:18:01.643Z,2.00
2019-05-26T15:20:30.085Z,1.80
2019-05-26T15:22:58.492Z,2.50
2019-05-26T15:25:26.953Z,2.13
2019-05-26T15:27:56.098Z,1.80
2019-05-26T15:30:24.634Z,2.10
2019-05-26T15:32:53.057Z,2.17
2019-05-26T15:35:21.474Z,2.03
2019-05-26T15:37:49.981Z,1.90
2019-05-26T15:40:18.735Z,2.00
2019-05-26T15:42:47.245Z,2.33
2019-05-26T15:45:16.198Z,2.23
2019-05-26T15:47:44.622Z,2.10
2019-05-26T15:50:13.909Z,2.33
2019-05-26T15:52:43.402Z,1.90
2019-05-26T15:55:12.464Z,2.10
2019-05-26T15:57:40.908Z,2.50
2019-05-26T16:00:09.535Z,1.90
2019-05-26T16:02:38.029Z,2.27
2019-05-26T16:05:07.295Z,2.20
2019-05-26T16:07:35.779Z,2.30
2019-05-26T16:10:09.909Z,2.43
2019-05-26T16:12:38.430Z,1.90
2019-05-26T16:15:09.950Z,2.10
2019-05-26T16:17:39.099Z,2.30
2019-05-26T16:20:09.507Z,1.90
2019-05-26T16:22:37.970Z,2.10
2019-05-26T16:25:07.507Z,2.40
2019-05-26T16:27:36.266Z,1.90
2019-05-26T16:30:09.806Z,2.20
2019-05-26T16:32:38.266Z,2.10
2019-05-26T16:35:07.619Z,2.10
2019-05-26T16:37:36.088Z,2.00
2019-05-26T16:40:06.676Z,2.00
2019-05-26T16:42:35.174Z,2.10
2019-05-26T16:45:04.611Z,1.80
2019-05-26T16:47:33.114Z,2.10
2019-05-26T16:50:01.611Z,1.63
2019-05-26T16:52:30.029Z,1.73
2019-05-26T16:54:58.441Z,1.70
2019-05-26T16:57:26.844Z,1.87
2019-05-26T16:59:55.262Z,1.40
2019-05-26T17:02:23.704Z,1.80
2019-05-26T17:04:52.129Z,1.50
2019-05-26T17:07:20.582Z,1.60
2019-05-26T17:09:48.982Z,1.70
2019-05-26T17:12:17.408Z,1.70
2019-05-26T17:14:45.844Z,1.47
2019-05-26T17:17:15.398Z,1.67
2019-05-26T17:19:43.956Z,1.80
2019-05-26T17:22:12.469Z,1.83
2019-05-26T17:24:40.872Z,1.53
2019-05-26T17:27:09.330Z,1.60
2019-05-26T17:29:37.728Z,1.70
2019-05-26T17:32:06.218Z,1.77
2019-05-26T17:34:34.800Z,1.70
2019-05-26T17:37:03.184Z,1.83
2019-05-26T17:39:31.620Z,1.40
2019-05-26T17:42:00.047Z,1.70
2019-05-26T17:44:28.459Z,1.87
2019-05-26T17:46:56.964Z,1.60
2019-05-26T17:49:25.375Z,1.63
2019-05-26T17:51:53.773Z,1.70
2019-05-26T17:54:22.211Z,1.50
2019-05-26T17:56:50.634Z,1.83
2019-05-26T17:59:19.095Z,1.90
2019-05-26T18:01:47.517Z,1.60
2019-05-26T18:04:16.733Z,1.77
2019-05-26T18:06:45.099Z,1.73
2019-05-26T18:09:13.515Z,1.83
2019-05-26T18:11:42.093Z,2.00
2019-05-26T18:14:10.529Z,1.70
2019-05-26T18:16:38.954Z,1.77
2019-05-26T18:19:07.520Z,1.80
2019-05-26T18:21:35.959Z,2.00
2019-05-26T18:24:05.011Z,1.70
2019-05-26T18:26:33.436Z,1.60
2019-05-26T18:29:01.935Z,1.60
2019-05-26T18:31:30.343Z,1.67
2019-05-26T18:33:58.760Z,1.63
2019-05-26T18:36:27.197Z,1.97
2019-05-26T18:38:57.128Z,1.80
2019-05-26T18:41:25.627Z,1.90
2019-05-26T18:43:54.091Z,1.80
2019-05-26T18:46:22.526Z,1.77
2019-05-26T18:48:50.939Z,1.93
2019-05-26T18:51:19.434Z,1.80
2019-05-26T18:53:47.916Z,1.70
2019-05-26T18:56:16.337Z,1.60
2019-05-26T18:58:45.840Z,2.13
2019-05-26T19:01:14.682Z,2.10
2019-05-26T19:03:43.591Z,1.80
2019-05-26T19:06:12.035Z,2.03
2019-05-26T19:08:42.223Z,2.00
2019-05-26T19:11:10.757Z,1.73
2019-05-26T19:13:39.271Z,2.03
2019-05-26T19:16:07.674Z,1.87
2019-05-26T19:18:36.103Z,1.67
2019-05-26T19:21:05.750Z,1.90
2019-05-26T19:23:34.158Z,1.90
2019-05-26T19:26:02.603Z,2.10
2019-05-26T19:28:30.996Z,1.80
2019-05-26T19:30:59.438Z,2.30
2019-05-26T19:33:27.879Z,2.10
2019-05-26T19:35:56.300Z,1.53
2019-05-26T19:38:24.735Z,1.90
2019-05-26T19:40:53.294Z,1.73
2019-05-26T19:43:21.705Z,2.10
2019-05-26T19:45:50.199Z,1.80
2019-05-26T19:48:32.989Z,2.23
2019-05-26T19:50:48.754Z,2.20
2019-05-26T19:53:17.215Z,1.70
2019-05-26T19:55:45.723Z,1.83
2019-05-26T19:58:14.226Z,2.10
2019-05-26T20:00:43.484Z,2.20
2019-05-26T20:03:11.907Z,1.97
2019-05-26T20:05:40.316Z,2.40
2019-05-26T20:08:08.846Z,2.00
2019-05-26T20:10:37.317Z,2.27
2019-05-26T20:13:05.836Z,2.43
2019-05-26T20:15:34.321Z,2.50
2019-05-26T20:18:02.956Z,2.03
2019-05-26T20:20:31.441Z,2.27
2019-05-26T20:22:59.849Z,2.10
2019-05-26T20:25:28.847Z,1.60
2019-05-26T20:27:57.262Z,2.10
2019-05-26T20:30:32.483Z,2.10
2019-05-26T20:33:01.019Z,2.00
2019-05-26T20:35:29.493Z,2.00
2019-05-26T20:37:57.940Z,2.10
2019-05-26T20:40:26.459Z,2.20
2019-05-26T20:42:54.869Z,2.47
2019-05-26T20:45:23.277Z,2.33
2019-05-26T20:47:52.575Z,2.00
2019-05-26T20:50:29.138Z,2.00
2019-05-26T20:52:51.381Z,2.13
2019-05-26T20:55:19.915Z,2.50
2019-05-26T20:57:48.339Z,2.00
2019-05-26T21:00:18.714Z,2.03
2019-05-26T21:02:47.131Z,2.27
2019-05-26T21:05:15.723Z,2.07
2019-05-26T21:07:44.112Z,2.10
2019-05-26T21:10:13.553Z,2.07
2019-05-26T21:12:41.976Z,2.10
2019-05-26T21:15:10.878Z,2.47
2019-05-26T21:17:39.307Z,2.37
2019-05-26T21:20:08.623Z,2.30
2019-05-26T21:22:37.098Z,2.27
2019-05-26T21:25:07.553Z,2.17
2019-05-26T21:27:36.034Z,2.33
2019-05-26T21:30:10.086Z,2.63
2019-05-26T21:32:38.708Z,1.90
2019-05-26T21:35:16.176Z,2.40
2019-05-26T21:37:54.976Z,2.10
2019-05-26T21:40:30.116Z,2.27
2019-05-26T21:42:58.615Z,2.27
2019-05-26T21:45:27.057Z,2.20
2019-05-26T21:47:55.506Z,2.20
2019-05-26T21:50:24.026Z,2.07
2019-05-26T21:52:52.568Z,2.10
2019-05-26T21:55:21.014Z,2.13
2019-05-26T21:57:49.513Z,2.63
2019-05-26T22:00:23.448Z,2.50
2019-05-26T22:02:51.942Z,2.07
2019-05-26T22:05:20.475Z,2.20
2019-05-26T22:07:59.729Z,2.17
2019-05-26T22:10:33.684Z,2.30
2019-05-26T22:13:03.028Z,2.30
2019-05-26T22:15:31.425Z,2.30
2019-05-26T22:17:59.902Z,1.70
2019-05-26T22:20:28.349Z,2.40
2019-05-26T22:22:56.859Z,2.20
2019-05-26T22:25:25.280Z,2.50
2019-05-26T22:27:53.737Z,2.80
2019-05-26T22:30:22.318Z,2.60
2019-05-26T22:32:50.732Z,2.20
2019-05-26T22:35:19.241Z,2.07
2019-05-26T22:37:47.668Z,2.03
2019-05-26T22:40:17.624Z,2.80
2019-05-26T22:42:46.089Z,2.60
2019-05-26T22:45:14.840Z,2.57
2019-05-26T22:47:43.276Z,2.30
2019-05-26T22:50:11.824Z,2.50
2019-05-26T22:52:40.236Z,2.47
2019-05-26T22:55:09.101Z,2.60
2019-05-26T22:57:37.500Z,3.13
2019-05-26T23:00:08.527Z,2.87
2019-05-26T23:02:40.621Z,2.83
2019-05-26T23:05:10.440Z,2.77
2019-05-26T23:07:40.732Z,3.33
2019-05-26T23:10:09.698Z,3.67
2019-05-26T23:12:39.797Z,3.97
2019-05-26T23:15:09.361Z,3.17
2019-05-26T23:17:38.330Z,3.27
2019-05-26T23:20:07.994Z,3.00
2019-05-26T23:22:36.437Z,2.93
2019-05-26T23:25:06.619Z,2.80
2019-05-26T23:27:35.042Z,2.97
2019-05-26T23:30:08.850Z,3.37
2019-05-26T23:32:37.256Z,2.60
2019-05-26T23:35:08.624Z,2.83
2019-05-26T23:37:37.515Z,2.40
2019-05-26T23:40:09.677Z,2.83
2019-05-26T23:42:38.092Z,2.67
2019-05-26T23:45:08.354Z,2.70
2019-05-26T23:47:36.828Z,3.07
2019-05-26T23:50:06.675Z,3.20
2019-05-26T23:52:35.110Z,3.17
2019-05-26T23:55:05.276Z,3.40
2019-05-26T23:57:33.673Z,3.30
